sensor_id;sensor_type;location;lat;lon;timestamp;P1;durP1;ratioP1;P2;durP2;ratioP2
19883;SDS011;10104;50.732;10.174;2023-04-01T00:00:40;7.33;;;1.70;;
19883;SDS011;10104;50.732;10.174;2023-04-01T00:03:01;8.20;;;2.00;;
19883;SDS011;10104;50.732;10.174;2023-04-01T00:05:23;4.30;;;1.47;;
19883;SDS011;10104;50.732;10.174;2023-04-01T00:07:46;6.83;;;1.90;;
19883;SDS011;10104;50.732;10.174;2023-04-01T00:10:08;3.77;;;1.50;;
19883;SDS011;10104;50.732;10.174;2023-04-01T00:12:31;6.43;;;2.00;;
19883;SDS011;10104;50.732;10.174;2023-04-01T00:14:53;5.63;;;1.93;;
19883;SDS011;10104;50.732;10.174;2023-04-01T00:17:14;6.53;;;1.73;;
19883;SDS011;10104;50.732;10.174;2023-04-01T00:19:36;6.63;;;1.83;;
19883;SDS011;10104;50.732;10.174;2023-04-01T00:21:58;4.50;;;1.47;;
19883;SDS011;10104;50.732;10.174;2023-04-01T00:24:20;4.77;;;1.43;;
19883;SDS011;10104;50.732;10.174;2023-04-01T00:26:41;5.23;;;2.33;;
19883;SDS011;10104;50.732;10.174;2023-04-01T00:29:03;4.47;;;1.60;;
19883;SDS011;10104;50.732;10.174;2023-04-01T00:31:25;7.37;;;1.70;;
19883;SDS011;10104;50.732;10.174;2023-04-01T00:33:46;4.80;;;1.57;;
19883;SDS011;10104;50.732;10.174;2023-04-01T00:36:09;4.73;;;1.70;;
19883;SDS011;10104;50.732;10.174;2023-04-01T00:38:32;5.10;;;1.93;;
19883;SDS011;10104;50.732;10.174;2023-04-01T00:40:56;10.97;;;2.27;;
19883;SDS011;10104;50.732;10.174;2023-04-01T00:43:19;3.83;;;1.70;;
19883;SDS011;10104;50.732;10.174;2023-04-01T00:45:42;3.70;;;1.57;;
19883;SDS011;10104;50.732;10.174;2023-04-01T00:48:06;5.80;;;1.60;;
19883;SDS011;10104;50.732;10.174;2023-04-01T00:50:31;4.90;;;1.70;;
19883;SDS011;10104;50.732;10.174;2023-04-01T00:52:54;5.23;;;1.70;;
19883;SDS011;10104;50.732;10.174;2023-04-01T00:55:16;9.13;;;1.73;;
19883;SDS011;10104;50.732;10.174;2023-04-01T00:57:40;4.50;;;1.70;;
19883;SDS011;10104;50.732;10.174;2023-04-01T01:00:06;2.10;;;1.37;;
19883;SDS011;10104;50.732;10.174;2023-04-01T01:02:32;6.07;;;1.93;;
19883;SDS011;10104;50.732;10.174;2023-04-01T01:04:55;5.37;;;1.70;;
19883;SDS011;10104;50.732;10.174;2023-04-01T01:10:01;4.73;;;1.60;;
19883;SDS011;10104;50.732;10.174;2023-04-01T01:12:46;7.07;;;1.70;;
19883;SDS011;10104;50.732;10.174;2023-04-01T01:15:21;3.03;;;1.53;;
19883;SDS011;10104;50.732;10.174;2023-04-01T01:17:56;7.17;;;1.70;;
19883;SDS011;10104;50.732;10.174;2023-04-01T01:34:19;7.13;;;1.80;;
19883;SDS011;10104;50.732;10.174;2023-04-01T01:36:48;5.13;;;1.70;;
19883;SDS011;10104;50.732;10.174;2023-04-01T01:39:16;7.50;;;1.73;;
19883;SDS011;10104;50.732;10.174;2023-04-01T01:41:41;4.77;;;1.60;;
19883;SDS011;10104;50.732;10.174;2023-04-01T01:44:06;5.87;;;1.70;;
19883;SDS011;10104;50.732;10.174;2023-04-01T01:46:29;8.23;;;1.67;;
19883;SDS011;10104;50.732;10.174;2023-04-01T01:48:52;6.10;;;1.63;;
19883;SDS011;10104;50.732;10.174;2023-04-01T01:51:15;5.47;;;1.43;;
19883;SDS011;10104;50.732;10.174;2023-04-01T01:53:37;5.20;;;1.50;;
19883;SDS011;10104;50.732;10.174;2023-04-01T01:55:59;3.63;;;1.27;;
19883;SDS011;10104;50.732;10.174;2023-04-01T01:58:28;6.40;;;1.50;;
19883;SDS011;10104;50.732;10.174;2023-04-01T02:01:00;3.67;;;1.60;;
19883;SDS011;10104;50.732;10.174;2023-04-01T02:03:26;5.27;;;1.63;;
19883;SDS011;10104;50.732;10.174;2023-04-01T02:05:50;5.50;;;1.83;;
19883;SDS011;10104;50.732;10.174;2023-04-01T02:08:20;4.57;;;1.60;;
19883;SDS011;10104;50.732;10.174;2023-04-01T02:10:49;4.10;;;1.50;;
19883;SDS011;10104;50.732;10.174;2023-04-01T02:13:22;2.20;;;1.00;;
19883;SDS011;10104;50.732;10.174;2023-04-01T02:15:50;7.33;;;1.63;;
19883;SDS011;10104;50.732;10.174;2023-04-01T02:18:18;7.00;;;1.60;;
19883;SDS011;10104;50.732;10.174;2023-04-01T02:20:41;2.40;;;1.20;;
19883;SDS011;10104;50.732;10.174;2023-04-01T02:23:05;3.93;;;1.50;;
19883;SDS011;10104;50.732;10.174;2023-04-01T02:25:30;4.30;;;1.70;;
19883;SDS011;10104;50.732;10.174;2023-04-01T02:27:56;4.90;;;1.47;;
19883;SDS011;10104;50.732;10.174;2023-04-01T02:30:20;3.57;;;1.50;;
19883;SDS011;10104;50.732;10.174;2023-04-01T02:32:42;3.40;;;1.23;;
19883;SDS011;10104;50.732;10.174;2023-04-01T02:35:07;4.27;;;1.37;;
19883;SDS011;10104;50.732;10.174;2023-04-01T02:37:31;2.77;;;1.50;;
19883;SDS011;10104;50.732;10.174;2023-04-01T02:39:58;3.87;;;1.43;;
19883;SDS011;10104;50.732;10.174;2023-04-01T02:42:21;6.33;;;1.83;;
19883;SDS011;10104;50.732;10.174;2023-04-01T02:44:43;4.27;;;1.50;;
19883;SDS011;10104;50.732;10.174;2023-04-01T02:47:04;3.70;;;1.47;;
19883;SDS011;10104;50.732;10.174;2023-04-01T02:49:26;5.40;;;1.97;;
19883;SDS011;10104;50.732;10.174;2023-04-01T02:51:48;3.23;;;1.30;;
19883;SDS011;10104;50.732;10.174;2023-04-01T02:54:09;6.57;;;1.50;;
19883;SDS011;10104;50.732;10.174;2023-04-01T02:56:31;4.63;;;1.30;;
19883;SDS011;10104;50.732;10.174;2023-04-01T02:58:52;5.93;;;1.70;;
19883;SDS011;10104;50.732;10.174;2023-04-01T03:01:15;4.43;;;1.27;;
19883;SDS011;10104;50.732;10.174;2023-04-01T03:03:36;4.37;;;1.37;;
19883;SDS011;10104;50.732;10.174;2023-04-01T03:06:03;3.10;;;1.03;;
19883;SDS011;10104;50.732;10.174;2023-04-01T03:08:26;6.10;;;1.53;;
19883;SDS011;10104;50.732;10.174;2023-04-01T03:10:47;4.80;;;1.50;;
19883;SDS011;10104;50.732;10.174;2023-04-01T03:13:09;6.17;;;1.30;;
19883;SDS011;10104;50.732;10.174;2023-04-01T03:15:30;2.57;;;1.20;;
19883;SDS011;10104;50.732;10.174;2023-04-01T03:17:52;3.47;;;1.20;;
19883;SDS011;10104;50.732;10.174;2023-04-01T03:20:15;6.47;;;1.40;;
19883;SDS011;10104;50.732;10.174;2023-04-01T03:22:36;4.50;;;1.40;;
19883;SDS011;10104;50.732;10.174;2023-04-01T03:25:02;1.90;;;1.10;;
19883;SDS011;10104;50.732;10.174;2023-04-01T03:27:24;4.43;;;1.40;;
19883;SDS011;10104;50.732;10.174;2023-04-01T03:29:45;4.23;;;1.10;;
19883;SDS011;10104;50.732;10.174;2023-04-01T03:32:07;4.07;;;1.27;;
19883;SDS011;10104;50.732;10.174;2023-04-01T03:34:28;4.00;;;1.20;;
19883;SDS011;10104;50.732;10.174;2023-04-01T03:36:51;6.17;;;1.43;;
19883;SDS011;10104;50.732;10.174;2023-04-01T03:39:13;3.27;;;1.13;;
19883;SDS011;10104;50.732;10.174;2023-04-01T03:41:35;6.13;;;1.47;;
19883;SDS011;10104;50.732;10.174;2023-04-01T03:43:58;3.83;;;1.30;;
19883;SDS011;10104;50.732;10.174;2023-04-01T03:46:19;2.00;;;0.80;;
19883;SDS011;10104;50.732;10.174;2023-04-01T03:48:41;3.07;;;1.20;;
19883;SDS011;10104;50.732;10.174;2023-04-01T03:51:06;3.17;;;1.10;;
19883;SDS011;10104;50.732;10.174;2023-04-01T03:53:28;2.67;;;1.03;;
19883;SDS011;10104;50.732;10.174;2023-04-01T03:55:50;4.73;;;1.47;;
19883;SDS011;10104;50.732;10.174;2023-04-01T03:58:14;3.30;;;0.97;;
19883;SDS011;10104;50.732;10.174;2023-04-01T04:00:36;4.57;;;1.13;;
19883;SDS011;10104;50.732;10.174;2023-04-01T04:02:58;3.73;;;1.10;;
19883;SDS011;10104;50.732;10.174;2023-04-01T04:05:20;3.87;;;1.20;;
19883;SDS011;10104;50.732;10.174;2023-04-01T04:07:41;4.50;;;1.60;;
19883;SDS011;10104;50.732;10.174;2023-04-01T04:10:03;5.13;;;1.00;;
19883;SDS011;10104;50.732;10.174;2023-04-01T04:12:24;5.50;;;1.70;;
19883;SDS011;10104;50.732;10.174;2023-04-01T04:14:46;3.53;;;1.33;;
19883;SDS011;10104;50.732;10.174;2023-04-01T04:17:09;6.27;;;1.63;;
19883;SDS011;10104;50.732;10.174;2023-04-01T04:19:37;4.97;;;1.37;;
19883;SDS011;10104;50.732;10.174;2023-04-01T04:21:58;6.70;;;1.17;;
19883;SDS011;10104;50.732;10.174;2023-04-01T04:24:22;5.93;;;1.40;;
19883;SDS011;10104;50.732;10.174;2023-04-01T04:26:43;4.00;;;1.10;;
19883;SDS011;10104;50.732;10.174;2023-04-01T04:29:05;5.23;;;1.30;;
19883;SDS011;10104;50.732;10.174;2023-04-01T04:31:26;2.77;;;1.20;;
19883;SDS011;10104;50.732;10.174;2023-04-01T04:33:48;3.73;;;1.20;;
19883;SDS011;10104;50.732;10.174;2023-04-01T04:36:10;5.67;;;0.90;;
19883;SDS011;10104;50.732;10.174;2023-04-01T04:38:31;3.77;;;1.20;;
19883;SDS011;10104;50.732;10.174;2023-04-01T04:40:53;3.27;;;1.50;;
19883;SDS011;10104;50.732;10.174;2023-04-01T04:43:15;3.43;;;1.10;;
19883;SDS011;10104;50.732;10.174;2023-04-01T04:45:38;3.07;;;0.80;;
19883;SDS011;10104;50.732;10.174;2023-04-01T04:47:59;4.47;;;1.30;;
19883;SDS011;10104;50.732;10.174;2023-04-01T04:50:21;4.20;;;1.10;;
19883;SDS011;10104;50.732;10.174;2023-04-01T04:52:43;3.77;;;1.10;;
19883;SDS011;10104;50.732;10.174;2023-04-01T04:55:05;5.13;;;0.97;;
19883;SDS011;10104;50.732;10.174;2023-04-01T04:57:27;3.37;;;1.03;;
19883;SDS011;10104;50.732;10.174;2023-04-01T04:59:48;1.93;;;1.03;;
19883;SDS011;10104;50.732;10.174;2023-04-01T05:02:10;3.87;;;1.40;;
19883;SDS011;10104;50.732;10.174;2023-04-01T05:04:35;3.73;;;1.27;;
19883;SDS011;10104;50.732;10.174;2023-04-01T05:06:57;5.77;;;1.30;;
19883;SDS011;10104;50.732;10.174;2023-04-01T05:09:19;4.40;;;1.10;;
19883;SDS011;10104;50.732;10.174;2023-04-01T05:11:41;2.07;;;0.83;;
19883;SDS011;10104;50.732;10.174;2023-04-01T05:14:02;2.57;;;1.10;;
19883;SDS011;10104;50.732;10.174;2023-04-01T05:16:23;2.50;;;1.00;;
19883;SDS011;10104;50.732;10.174;2023-04-01T05:18:45;4.07;;;1.23;;
19883;SDS011;10104;50.732;10.174;2023-04-01T05:21:09;6.63;;;0.90;;
19883;SDS011;10104;50.732;10.174;2023-04-01T05:23:32;3.30;;;1.07;;
19883;SDS011;10104;50.732;10.174;2023-04-01T05:25:54;2.20;;;1.40;;
19883;SDS011;10104;50.732;10.174;2023-04-01T05:28:18;4.60;;;1.20;;
19883;SDS011;10104;50.732;10.174;2023-04-01T05:30:41;5.13;;;1.10;;
19883;SDS011;10104;50.732;10.174;2023-04-01T05:33:03;4.30;;;1.50;;
19883;SDS011;10104;50.732;10.174;2023-04-01T05:35:25;3.90;;;1.30;;
19883;SDS011;10104;50.732;10.174;2023-04-01T05:37:46;4.23;;;1.47;;
19883;SDS011;10104;50.732;10.174;2023-04-01T05:40:08;1.70;;;0.87;;
19883;SDS011;10104;50.732;10.174;2023-04-01T05:42:30;3.67;;;1.13;;
19883;SDS011;10104;50.732;10.174;2023-04-01T05:44:51;2.03;;;1.03;;
19883;SDS011;10104;50.732;10.174;2023-04-01T05:47:13;2.93;;;0.93;;
19883;SDS011;10104;50.732;10.174;2023-04-01T05:49:35;1.90;;;0.93;;
19883;SDS011;10104;50.732;10.174;2023-04-01T05:51:56;5.80;;;1.40;;
19883;SDS011;10104;50.732;10.174;2023-04-01T05:54:18;3.07;;;1.13;;
19883;SDS011;10104;50.732;10.174;2023-04-01T05:56:40;2.53;;;1.10;;
19883;SDS011;10104;50.732;10.174;2023-04-01T05:59:02;2.43;;;1.00;;
19883;SDS011;10104;50.732;10.174;2023-04-01T06:01:24;3.23;;;1.10;;
19883;SDS011;10104;50.732;10.174;2023-04-01T06:03:45;4.83;;;1.33;;
19883;SDS011;10104;50.732;10.174;2023-04-01T06:06:14;2.70;;;1.20;;
19883;SDS011;10104;50.732;10.174;2023-04-01T06:08:44;2.03;;;0.80;;
19883;SDS011;10104;50.732;10.174;2023-04-01T06:26:43;2.70;;;0.90;;
19883;SDS011;10104;50.732;10.174;2023-04-01T06:31:50;2.07;;;1.07;;
19883;SDS011;10104;50.732;10.174;2023-04-01T06:37:16;2.47;;;0.90;;
19883;SDS011;10104;50.732;10.174;2023-04-01T06:45:13;3.17;;;0.90;;
19883;SDS011;10104;50.732;10.174;2023-04-01T06:47:52;2.97;;;1.07;;
19883;SDS011;10104;50.732;10.174;2023-04-01T06:50:29;2.47;;;1.00;;
19883;SDS011;10104;50.732;10.174;2023-04-01T06:53:01;4.67;;;1.03;;
19883;SDS011;10104;50.732;10.174;2023-04-01T06:58:11;2.77;;;1.00;;
19883;SDS011;10104;50.732;10.174;2023-04-01T07:00:43;2.30;;;0.90;;
19883;SDS011;10104;50.732;10.174;2023-04-01T07:03:12;2.43;;;0.90;;
19883;SDS011;10104;50.732;10.174;2023-04-01T07:05:39;2.50;;;0.87;;
19883;SDS011;10104;50.732;10.174;2023-04-01T07:08:03;2.93;;;0.90;;
19883;SDS011;10104;50.732;10.174;2023-04-01T07:12:58;3.07;;;1.30;;
19883;SDS011;10104;50.732;10.174;2023-04-01T07:18:34;1.97;;;1.20;;
19883;SDS011;10104;50.732;10.174;2023-04-01T07:21:02;1.73;;;0.93;;
19883;SDS011;10104;50.732;10.174;2023-04-01T07:23:26;1.50;;;0.70;;
19883;SDS011;10104;50.732;10.174;2023-04-01T07:25:55;2.30;;;0.80;;
19883;SDS011;10104;50.732;10.174;2023-04-01T07:28:20;3.50;;;1.07;;
19883;SDS011;10104;50.732;10.174;2023-04-01T07:33:25;2.33;;;0.93;;
19883;SDS011;10104;50.732;10.174;2023-04-01T07:38:49;2.83;;;1.07;;
19883;SDS011;10104;50.732;10.174;2023-04-01T07:46:46;3.50;;;0.90;;
19883;SDS011;10104;50.732;10.174;2023-04-01T07:52:05;1.57;;;0.70;;
19883;SDS011;10104;50.732;10.174;2023-04-01T07:54:37;2.10;;;0.80;;
19883;SDS011;10104;50.732;10.174;2023-04-01T08:05:45;1.47;;;0.90;;
19883;SDS011;10104;50.732;10.174;2023-04-01T08:11:25;1.13;;;0.50;;
19883;SDS011;10104;50.732;10.174;2023-04-01T08:16:27;1.47;;;0.70;;
19883;SDS011;10104;50.732;10.174;2023-04-01T08:19:13;1.90;;;0.50;;
19883;SDS011;10104;50.732;10.174;2023-04-01T08:21:48;0.40;;;0.40;;
19883;SDS011;10104;50.732;10.174;2023-04-01T08:24:19;1.73;;;0.63;;
19883;SDS011;10104;50.732;10.174;2023-04-01T08:26:50;1.87;;;0.70;;
19883;SDS011;10104;50.732;10.174;2023-04-01T08:29:20;1.43;;;0.63;;
19883;SDS011;10104;50.732;10.174;2023-04-01T08:34:25;5.27;;;1.00;;
19883;SDS011;10104;50.732;10.174;2023-04-01T08:36:59;0.90;;;0.60;;
19883;SDS011;10104;50.732;10.174;2023-04-01T08:39:35;2.25;;;0.68;;
19883;SDS011;10104;50.732;10.174;2023-04-01T08:42:04;0.77;;;0.60;;
19883;SDS011;10104;50.732;10.174;2023-04-01T08:47:54;2.35;;;0.50;;
19883;SDS011;10104;50.732;10.174;2023-04-01T08:53:18;0.70;;;0.60;;
19883;SDS011;10104;50.732;10.174;2023-04-01T08:55:56;4.40;;;0.68;;
19883;SDS011;10104;50.732;10.174;2023-04-01T09:01:12;1.02;;;0.50;;
19883;SDS011;10104;50.732;10.174;2023-04-01T09:06:37;1.13;;;0.50;;
19883;SDS011;10104;50.732;10.174;2023-04-01T09:09:35;2.97;;;0.50;;
19883;SDS011;10104;50.732;10.174;2023-04-01T09:14:49;1.10;;;0.60;;
19883;SDS011;10104;50.732;10.174;2023-04-01T09:17:37;1.90;;;0.67;;
19883;SDS011;10104;50.732;10.174;2023-04-01T09:26:06;2.13;;;0.50;;
19883;SDS011;10104;50.732;10.174;2023-04-01T09:28:48;1.10;;;0.60;;
19883;SDS011;10104;50.732;10.174;2023-04-01T09:31:51;0.47;;;0.40;;
19883;SDS011;10104;50.732;10.174;2023-04-01T09:34:33;0.90;;;0.43;;
19883;SDS011;10104;50.732;10.174;2023-04-01T09:37:30;0.80;;;0.50;;
19883;SDS011;10104;50.732;10.174;2023-04-01T09:48:09;0.53;;;0.50;;
19883;SDS011;10104;50.732;10.174;2023-04-01T09:50:49;0.70;;;0.50;;
19883;SDS011;10104;50.732;10.174;2023-04-01T09:53:28;1.23;;;0.57;;
19883;SDS011;10104;50.732;10.174;2023-04-01T10:13:01;1.43;;;0.60;;
19883;SDS011;10104;50.732;10.174;2023-04-01T10:29:28;1.42;;;0.60;;
19883;SDS011;10104;50.732;10.174;2023-04-01T10:38:31;0.70;;;0.50;;
19883;SDS011;10104;50.732;10.174;2023-04-01T10:58:19;0.87;;;0.40;;
19883;SDS011;10104;50.732;10.174;2023-04-01T11:04:09;1.02;;;0.40;;
19883;SDS011;10104;50.732;10.174;2023-04-01T11:09:31;0.73;;;0.60;;
19883;SDS011;10104;50.732;10.174;2023-04-01T11:15:21;1.10;;;0.60;;
19883;SDS011;10104;50.732;10.174;2023-04-01T11:21:03;1.50;;;0.60;;
19883;SDS011;10104;50.732;10.174;2023-04-01T11:26:32;0.50;;;0.40;;
19883;SDS011;10104;50.732;10.174;2023-04-01T11:32:24;1.27;;;0.70;;
19883;SDS011;10104;50.732;10.174;2023-04-01T11:35:15;0.50;;;0.40;;
19883;SDS011;10104;50.732;10.174;2023-04-01T11:40:44;0.93;;;0.45;;
19883;SDS011;10104;50.732;10.174;2023-04-01T11:43:32;0.35;;;0.35;;
19883;SDS011;10104;50.732;10.174;2023-04-01T11:46:10;0.57;;;0.43;;
19883;SDS011;10104;50.732;10.174;2023-04-01T12:00:02;0.60;;;0.40;;
19883;SDS011;10104;50.732;10.174;2023-04-01T12:02:52;0.30;;;0.30;;
19883;SDS011;10104;50.732;10.174;2023-04-01T12:10:44;0.40;;;0.38;;
19883;SDS011;10104;50.732;10.174;2023-04-01T12:23:56;0.47;;;0.40;;
19883;SDS011;10104;50.732;10.174;2023-04-01T12:40:38;0.45;;;0.45;;
19883;SDS011;10104;50.732;10.174;2023-04-01T12:46:16;0.40;;;0.40;;
19883;SDS011;10104;50.732;10.174;2023-04-01T13:08:18;0.30;;;0.30;;
19883;SDS011;10104;50.732;10.174;2023-04-01T13:16:14;0.30;;;0.30;;
19883;SDS011;10104;50.732;10.174;2023-04-01T13:21:19;0.40;;;0.40;;
19883;SDS011;10104;50.732;10.174;2023-04-01T13:26:46;1.45;;;0.35;;
19883;SDS011;10104;50.732;10.174;2023-04-01T13:29:18;2.55;;;0.38;;
19883;SDS011;10104;50.732;10.174;2023-04-01T13:31:53;0.50;;;0.50;;
19883;SDS011;10104;50.732;10.174;2023-04-01T13:36:50;0.20;;;0.20;;
19883;SDS011;10104;50.732;10.174;2023-04-01T13:39:35;0.47;;;0.47;;
19883;SDS011;10104;50.732;10.174;2023-04-01T13:50:02;0.77;;;0.50;;
19883;SDS011;10104;50.732;10.174;2023-04-01T13:55:26;0.80;;;0.40;;
19883;SDS011;10104;50.732;10.174;2023-04-01T13:58:03;0.70;;;0.47;;
19883;SDS011;10104;50.732;10.174;2023-04-01T14:09:25;1.47;;;0.60;;
19883;SDS011;10104;50.732;10.174;2023-04-01T14:12:19;0.67;;;0.43;;
19883;SDS011;10104;50.732;10.174;2023-04-01T14:15:01;0.63;;;0.53;;
19883;SDS011;10104;50.732;10.174;2023-04-01T14:17:54;1.87;;;0.60;;
19883;SDS011;10104;50.732;10.174;2023-04-01T14:37:35;1.55;;;0.60;;
19883;SDS011;10104;50.732;10.174;2023-04-01T14:50:57;0.82;;;0.60;;
19883;SDS011;10104;50.732;10.174;2023-04-01T14:53:30;0.50;;;0.50;;
19883;SDS011;10104;50.732;10.174;2023-04-01T14:56:00;0.80;;;0.70;;
19883;SDS011;10104;50.732;10.174;2023-04-01T14:58:25;1.67;;;0.60;;
19883;SDS011;10104;50.732;10.174;2023-04-01T15:03:26;0.80;;;0.80;;
19883;SDS011;10104;50.732;10.174;2023-04-01T15:05:54;1.85;;;0.65;;
19883;SDS011;10104;50.732;10.174;2023-04-01T15:08:29;0.80;;;0.70;;
19883;SDS011;10104;50.732;10.174;2023-04-01T15:18:39;1.70;;;1.15;;
19883;SDS011;10104;50.732;10.174;2023-04-01T15:24:06;0.95;;;0.70;;
19883;SDS011;10104;50.732;10.174;2023-04-01T15:26:56;1.80;;;1.40;;
19883;SDS011;10104;50.732;10.174;2023-04-01T15:29:35;0.50;;;0.50;;
19883;SDS011;10104;50.732;10.174;2023-04-01T15:32:13;0.65;;;0.60;;
19883;SDS011;10104;50.732;10.174;2023-04-01T15:34:55;0.43;;;0.40;;
19883;SDS011;10104;50.732;10.174;2023-04-01T15:37:39;1.13;;;0.90;;
19883;SDS011;10104;50.732;10.174;2023-04-01T15:43:03;1.77;;;1.47;;
19883;SDS011;10104;50.732;10.174;2023-04-01T15:45:58;2.00;;;0.70;;
19883;SDS011;10104;50.732;10.174;2023-04-01T15:51:41;0.63;;;0.63;;
19883;SDS011;10104;50.732;10.174;2023-04-01T16:10:23;1.43;;;0.60;;
19883;SDS011;10104;50.732;10.174;2023-04-01T16:15:27;1.20;;;0.83;;
19883;SDS011;10104;50.732;10.174;2023-04-01T16:20:24;1.50;;;0.90;;
19883;SDS011;10104;50.732;10.174;2023-04-01T16:25:51;1.73;;;0.67;;
19883;SDS011;10104;50.732;10.174;2023-04-01T16:29:03;1.50;;;0.77;;
19883;SDS011;10104;50.732;10.174;2023-04-01T16:39:47;1.20;;;1.10;;
19883;SDS011;10104;50.732;10.174;2023-04-01T16:44:56;1.10;;;0.93;;
19883;SDS011;10104;50.732;10.174;2023-04-01T16:47:30;1.53;;;1.10;;
19883;SDS011;10104;50.732;10.174;2023-04-01T16:52:58;3.57;;;1.50;;
19883;SDS011;10104;50.732;10.174;2023-04-01T16:55:23;1.47;;;1.20;;
19883;SDS011;10104;50.732;10.174;2023-04-01T16:58:18;1.50;;;1.10;;
19883;SDS011;10104;50.732;10.174;2023-04-01T17:00:48;1.20;;;1.03;;
19883;SDS011;10104;50.732;10.174;2023-04-01T17:03:20;1.63;;;1.43;;
19883;SDS011;10104;50.732;10.174;2023-04-01T17:08:19;2.43;;;1.70;;
19883;SDS011;10104;50.732;10.174;2023-04-01T17:10:52;5.80;;;5.13;;
19883;SDS011;10104;50.732;10.174;2023-04-01T17:16:00;6.60;;;5.87;;
19883;SDS011;10104;50.732;10.174;2023-04-01T17:18:28;1.90;;;1.70;;
19883;SDS011;10104;50.732;10.174;2023-04-01T17:23:45;1.00;;;0.90;;
19883;SDS011;10104;50.732;10.174;2023-04-01T17:28:55;1.03;;;0.90;;
19883;SDS011;10104;50.732;10.174;2023-04-01T17:31:37;1.40;;;1.00;;
19883;SDS011;10104;50.732;10.174;2023-04-01T17:34:27;2.20;;;1.00;;
19883;SDS011;10104;50.732;10.174;2023-04-01T17:37:20;3.93;;;1.03;;
19883;SDS011;10104;50.732;10.174;2023-04-01T17:40:00;3.10;;;2.53;;
19883;SDS011;10104;50.732;10.174;2023-04-01T17:48:01;6.03;;;5.13;;
19883;SDS011;10104;50.732;10.174;2023-04-01T17:50:49;5.97;;;5.13;;
19883;SDS011;10104;50.732;10.174;2023-04-01T17:53:23;2.77;;;1.80;;
19883;SDS011;10104;50.732;10.174;2023-04-01T17:58:35;3.17;;;2.00;;
19883;SDS011;10104;50.732;10.174;2023-04-01T18:01:16;7.87;;;6.37;;
19883;SDS011;10104;50.732;10.174;2023-04-01T18:06:36;9.50;;;8.50;;
19883;SDS011;10104;50.732;10.174;2023-04-01T18:09:26;4.63;;;4.00;;
19883;SDS011;10104;50.732;10.174;2023-04-01T18:12:31;2.57;;;2.10;;
19883;SDS011;10104;50.732;10.174;2023-04-01T18:20:27;2.63;;;1.30;;
19883;SDS011;10104;50.732;10.174;2023-04-01T18:23:00;3.13;;;1.20;;
19883;SDS011;10104;50.732;10.174;2023-04-01T18:31:15;2.67;;;1.07;;
19883;SDS011;10104;50.732;10.174;2023-04-01T18:33:59;2.20;;;1.10;;
19883;SDS011;10104;50.732;10.174;2023-04-01T18:39:22;1.40;;;1.20;;
19883;SDS011;10104;50.732;10.174;2023-04-01T18:44:46;1.80;;;1.10;;
19883;SDS011;10104;50.732;10.174;2023-04-01T18:55:59;2.03;;;1.30;;
19883;SDS011;10104;50.732;10.174;2023-04-01T19:03:20;6.60;;;1.40;;
19883;SDS011;10104;50.732;10.174;2023-04-01T19:05:46;2.17;;;1.20;;
19883;SDS011;10104;50.732;10.174;2023-04-01T19:10:54;1.47;;;1.00;;
19883;SDS011;10104;50.732;10.174;2023-04-01T19:13:38;2.47;;;1.17;;
19883;SDS011;10104;50.732;10.174;2023-04-01T19:18:54;0.90;;;0.80;;
19883;SDS011;10104;50.732;10.174;2023-04-01T19:21:28;2.00;;;0.77;;
19883;SDS011;10104;50.732;10.174;2023-04-01T19:33:37;1.20;;;0.93;;
19883;SDS011;10104;50.732;10.174;2023-04-01T19:35:38;1.70;;;1.20;;
19883;SDS011;10104;50.732;10.174;2023-04-01T19:38:26;1.83;;;1.50;;
19883;SDS011;10104;50.732;10.174;2023-04-01T19:40:58;3.67;;;3.37;;
19883;SDS011;10104;50.732;10.174;2023-04-01T19:45:59;3.70;;;2.20;;
19883;SDS011;10104;50.732;10.174;2023-04-01T19:51:00;2.10;;;1.70;;
19883;SDS011;10104;50.732;10.174;2023-04-01T19:56:07;4.17;;;1.97;;
19883;SDS011;10104;50.732;10.174;2023-04-01T19:58:43;1.90;;;1.60;;
19883;SDS011;10104;50.732;10.174;2023-04-01T20:01:44;2.70;;;1.50;;
19883;SDS011;10104;50.732;10.174;2023-04-01T20:04:24;2.03;;;1.10;;
19883;SDS011;10104;50.732;10.174;2023-04-01T20:07:53;6.77;;;1.77;;
19883;SDS011;10104;50.732;10.174;2023-04-01T20:12:29;5.97;;;1.70;;
19883;SDS011;10104;50.732;10.174;2023-04-01T20:15:04;4.80;;;1.30;;
19883;SDS011;10104;50.732;10.174;2023-04-01T20:17:48;2.07;;;1.40;;
19883;SDS011;10104;50.732;10.174;2023-04-01T20:20:21;4.23;;;1.60;;
19883;SDS011;10104;50.732;10.174;2023-04-01T20:31:31;2.93;;;2.27;;
19883;SDS011;10104;50.732;10.174;2023-04-01T20:34:06;3.17;;;2.10;;
19883;SDS011;10104;50.732;10.174;2023-04-01T20:45:58;2.40;;;2.10;;
19883;SDS011;10104;50.732;10.174;2023-04-01T20:48:26;4.17;;;2.00;;
19883;SDS011;10104;50.732;10.174;2023-04-01T20:53:35;2.80;;;2.33;;
19883;SDS011;10104;50.732;10.174;2023-04-01T20:56:06;4.97;;;2.80;;
19883;SDS011;10104;50.732;10.174;2023-04-01T21:01:34;3.20;;;2.87;;
19883;SDS011;10104;50.732;10.174;2023-04-01T21:04:17;5.87;;;2.90;;
19883;SDS011;10104;50.732;10.174;2023-04-01T21:07:01;3.07;;;2.73;;
19883;SDS011;10104;50.732;10.174;2023-04-01T21:12:26;11.00;;;3.60;;
19883;SDS011;10104;50.732;10.174;2023-04-01T21:14:57;4.37;;;2.97;;
19883;SDS011;10104;50.732;10.174;2023-04-01T21:17:41;4.83;;;2.63;;
19883;SDS011;10104;50.732;10.174;2023-04-01T21:28:28;3.20;;;2.90;;
19883;SDS011;10104;50.732;10.174;2023-04-01T21:31:00;6.83;;;3.10;;
19883;SDS011;10104;50.732;10.174;2023-04-01T21:36:13;2.67;;;2.30;;
19883;SDS011;10104;50.732;10.174;2023-04-01T21:41:08;3.50;;;2.17;;
19883;SDS011;10104;50.732;10.174;2023-04-01T22:05:49;1.60;;;0.93;;
19883;SDS011;10104;50.732;10.174;2023-04-01T22:11:08;2.40;;;0.93;;
19883;SDS011;10104;50.732;10.174;2023-04-01T22:13:39;1.50;;;1.00;;
19883;SDS011;10104;50.732;10.174;2023-04-01T22:16:14;3.00;;;0.90;;
19883;SDS011;10104;50.732;10.174;2023-04-01T22:19:06;1.13;;;0.80;;
19883;SDS011;10104;50.732;10.174;2023-04-01T22:27:38;1.00;;;0.90;;
19883;SDS011;10104;50.732;10.174;2023-04-01T22:32:43;1.00;;;0.87;;
19883;SDS011;10104;50.732;10.174;2023-04-01T22:41:01;1.10;;;0.90;;
19883;SDS011;10104;50.732;10.174;2023-04-01T22:43:41;1.07;;;0.80;;
19883;SDS011;10104;50.732;10.174;2023-04-01T22:48:54;2.80;;;1.20;;
19883;SDS011;10104;50.732;10.174;2023-04-01T22:54:11;1.20;;;1.10;;
19883;SDS011;10104;50.732;10.174;2023-04-01T22:56:40;2.60;;;1.20;;
19883;SDS011;10104;50.732;10.174;2023-04-01T22:59:12;1.73;;;1.30;;
19883;SDS011;10104;50.732;10.174;2023-04-01T23:01:40;9.17;;;1.93;;
19883;SDS011;10104;50.732;10.174;2023-04-01T23:04:12;7.87;;;1.63;;
19883;SDS011;10104;50.732;10.174;2023-04-01T23:06:39;1.47;;;1.30;;
19883;SDS011;10104;50.732;10.174;2023-04-01T23:09:10;2.37;;;1.53;;
19883;SDS011;10104;50.732;10.174;2023-04-01T23:17:27;1.90;;;1.60;;
19883;SDS011;10104;50.732;10.174;2023-04-01T23:20:05;2.10;;;1.47;;
19883;SDS011;10104;50.732;10.174;2023-04-01T23:22:37;3.03;;;1.20;;
19883;SDS011;10104;50.732;10.174;2023-04-01T23:27:49;4.97;;;1.60;;
19883;SDS011;10104;50.732;10.174;2023-04-01T23:30:45;3.17;;;2.00;;
19883;SDS011;10104;50.732;10.174;2023-04-01T23:35:46;1.53;;;1.43;;
19883;SDS011;10104;50.732;10.174;2023-04-01T23:38:09;3.63;;;1.70;;
19883;SDS011;10104;50.732;10.174;2023-04-01T23:40:30;2.10;;;1.90;;
19883;SDS011;10104;50.732;10.174;2023-04-01T23:42:52;4.53;;;1.80;;
19883;SDS011;10104;50.732;10.174;2023-04-01T23:45:15;2.83;;;1.90;;
19883;SDS011;10104;50.732;10.174;2023-04-01T23:47:41;2.67;;;1.63;;
19883;SDS011;10104;50.732;10.174;2023-04-01T23:52:48;2.73;;;1.70;;